sensor_id;sensor_type;location;lat;lon;timestamp;temperature;humidity
3996;DHT22;2012;49.794;9.722;2023-01-08T00:01:14;5.10;99.90
3996;DHT22;2012;49.794;9.722;2023-01-08T00:03:41;5.10;99.90
3996;DHT22;2012;49.794;9.722;2023-01-08T00:06:11;5.20;99.90
3996;DHT22;2012;49.794;9.722;2023-01-08T00:08:38;5.20;99.90
3996;DHT22;2012;49.794;9.722;2023-01-08T00:11:05;5.30;99.90
3996;DHT22;2012;49.794;9.722;2023-01-08T00:13:32;5.30;99.90
3996;DHT22;2012;49.794;9.722;2023-01-08T00:16:03;5.30;99.90
3996;DHT22;2012;49.794;9.722;2023-01-08T00:18:31;5.10;99.90
3996;DHT22;2012;49.794;9.722;2023-01-08T00:20:58;5.20;99.90
3996;DHT22;2012;49.794;9.722;2023-01-08T00:23:24;5.30;99.90
3996;DHT22;2012;49.794;9.722;2023-01-08T00:25:51;5.30;99.90
3996;DHT22;2012;49.794;9.722;2023-01-08T00:28:18;5.40;99.90
3996;DHT22;2012;49.794;9.722;2023-01-08T00:30:47;5.40;99.90
3996;DHT22;2012;49.794;9.722;2023-01-08T00:33:14;5.40;99.90
3996;DHT22;2012;49.794;9.722;2023-01-08T00:35:41;5.40;99.90
3996;DHT22;2012;49.794;9.722;2023-01-08T00:38:08;5.50;99.90
3996;DHT22;2012;49.794;9.722;2023-01-08T00:40:35;5.50;99.90
3996;DHT22;2012;49.794;9.722;2023-01-08T00:43:02;5.50;99.90
3996;DHT22;2012;49.794;9.722;2023-01-08T00:45:29;5.50;99.90
3996;DHT22;2012;49.794;9.722;2023-01-08T00:47:56;5.40;99.90
3996;DHT22;2012;49.794;9.722;2023-01-08T00:50:23;5.50;99.90
3996;DHT22;2012;49.794;9.722;2023-01-08T00:52:50;5.50;99.90
3996;DHT22;2012;49.794;9.722;2023-01-08T00:55:17;5.50;99.90
3996;DHT22;2012;49.794;9.722;2023-01-08T00:57:44;5.60;99.90
3996;DHT22;2012;49.794;9.722;2023-01-08T01:00:13;5.60;99.90
3996;DHT22;2012;49.794;9.722;2023-01-08T01:02:40;5.60;99.90
3996;DHT22;2012;49.794;9.722;2023-01-08T01:05:07;5.50;99.90
3996;DHT22;2012;49.794;9.722;2023-01-08T01:07:35;5.50;99.90
3996;DHT22;2012;49.794;9.722;2023-01-08T01:10:02;5.50;99.90
3996;DHT22;2012;49.794;9.722;2023-01-08T01:12:29;5.40;99.90
3996;DHT22;2012;49.794;9.722;2023-01-08T01:14:56;5.20;99.90
3996;DHT22;2012;49.794;9.722;2023-01-08T01:17:23;5.20;99.90
3996;DHT22;2012;49.794;9.722;2023-01-08T01:19:50;5.30;99.90
3996;DHT22;2012;49.794;9.722;2023-01-08T01:22:16;5.50;99.90
3996;DHT22;2012;49.794;9.722;2023-01-08T01:24:43;5.40;99.90
3996;DHT22;2012;49.794;9.722;2023-01-08T01:27:10;5.50;99.90
3996;DHT22;2012;49.794;9.722;2023-01-08T01:29:36;5.60;99.90
3996;DHT22;2012;49.794;9.722;2023-01-08T01:32:03;5.50;99.90
3996;DHT22;2012;49.794;9.722;2023-01-08T01:34:31;5.60;99.90
3996;DHT22;2012;49.794;9.722;2023-01-08T01:36:58;5.70;99.90
3996;DHT22;2012;49.794;9.722;2023-01-08T01:39:25;5.60;99.90
3996;DHT22;2012;49.794;9.722;2023-01-08T01:41:51;5.60;99.90
3996;DHT22;2012;49.794;9.722;2023-01-08T01:44:35;5.70;99.90
3996;DHT22;2012;49.794;9.722;2023-01-08T01:47:15;5.70;99.90
3996;DHT22;2012;49.794;9.722;2023-01-08T01:50:03;5.80;99.90
3996;DHT22;2012;49.794;9.722;2023-01-08T01:52:36;5.80;99.90
3996;DHT22;2012;49.794;9.722;2023-01-08T01:55:04;5.80;99.90
3996;DHT22;2012;49.794;9.722;2023-01-08T01:57:32;5.80;99.90
3996;DHT22;2012;49.794;9.722;2023-01-08T02:00:00;5.80;99.90
3996;DHT22;2012;49.794;9.722;2023-01-08T02:02:30;5.80;99.90
3996;DHT22;2012;49.794;9.722;2023-01-08T02:04:59;5.80;99.90
3996;DHT22;2012;49.794;9.722;2023-01-08T02:12:54;6.00;99.90
3996;DHT22;2012;49.794;9.722;2023-01-08T02:15:37;6.10;99.90
3996;DHT22;2012;49.794;9.722;2023-01-08T02:18:12;6.20;99.90
3996;DHT22;2012;49.794;9.722;2023-01-08T02:20:54;6.20;99.90
3996;DHT22;2012;49.794;9.722;2023-01-08T02:26:11;6.30;99.90
3996;DHT22;2012;49.794;9.722;2023-01-08T02:31:18;6.20;99.90
3996;DHT22;2012;49.794;9.722;2023-01-08T02:33:45;6.10;99.90
3996;DHT22;2012;49.794;9.722;2023-01-08T02:39:20;6.20;99.90
3996;DHT22;2012;49.794;9.722;2023-01-08T02:42:51;6.20;99.90
3996;DHT22;2012;49.794;9.722;2023-01-08T02:50:58;6.30;99.90
3996;DHT22;2012;49.794;9.722;2023-01-08T02:53:32;6.30;99.90
3996;DHT22;2012;49.794;9.722;2023-01-08T02:56:04;6.40;99.90
3996;DHT22;2012;49.794;9.722;2023-01-08T02:58:33;6.40;99.90
3996;DHT22;2012;49.794;9.722;2023-01-08T03:01:06;6.50;99.90
3996;DHT22;2012;49.794;9.722;2023-01-08T03:03:34;6.50;99.90
3996;DHT22;2012;49.794;9.722;2023-01-08T03:06:07;6.50;99.90
3996;DHT22;2012;49.794;9.722;2023-01-08T03:08:37;6.40;99.90
3996;DHT22;2012;49.794;9.722;2023-01-08T03:11:07;6.50;99.90
3996;DHT22;2012;49.794;9.722;2023-01-08T03:13:46;6.50;99.90
3996;DHT22;2012;49.794;9.722;2023-01-08T03:16:22;6.50;99.90
3996;DHT22;2012;49.794;9.722;2023-01-08T03:18:58;6.50;99.90
3996;DHT22;2012;49.794;9.722;2023-01-08T03:21:27;6.50;99.90
3996;DHT22;2012;49.794;9.722;2023-01-08T03:23:55;6.50;99.90
3996;DHT22;2012;49.794;9.722;2023-01-08T03:26:24;6.50;99.90
3996;DHT22;2012;49.794;9.722;2023-01-08T03:28:54;6.50;99.90
3996;DHT22;2012;49.794;9.722;2023-01-08T03:31:24;6.60;99.90
3996;DHT22;2012;49.794;9.722;2023-01-08T03:33:53;6.50;99.90
3996;DHT22;2012;49.794;9.722;2023-01-08T03:36:24;6.60;99.90
3996;DHT22;2012;49.794;9.722;2023-01-08T03:38:57;6.60;99.90
3996;DHT22;2012;49.794;9.722;2023-01-08T03:41:27;6.60;99.90
3996;DHT22;2012;49.794;9.722;2023-01-08T03:43:55;6.70;99.90
3996;DHT22;2012;49.794;9.722;2023-01-08T03:46:28;6.80;99.90
3996;DHT22;2012;49.794;9.722;2023-01-08T03:48:57;6.80;99.90
3996;DHT22;2012;49.794;9.722;2023-01-08T03:51:25;6.70;99.90
3996;DHT22;2012;49.794;9.722;2023-01-08T03:53:55;6.70;99.90
3996;DHT22;2012;49.794;9.722;2023-01-08T03:56:24;6.70;99.90
3996;DHT22;2012;49.794;9.722;2023-01-08T03:58:51;6.80;99.90
3996;DHT22;2012;49.794;9.722;2023-01-08T04:01:17;6.70;99.90
3996;DHT22;2012;49.794;9.722;2023-01-08T04:03:44;6.70;99.90
3996;DHT22;2012;49.794;9.722;2023-01-08T04:06:11;6.70;99.90
3996;DHT22;2012;49.794;9.722;2023-01-08T04:08:38;6.80;99.90
3996;DHT22;2012;49.794;9.722;2023-01-08T04:11:04;6.70;99.90
3996;DHT22;2012;49.794;9.722;2023-01-08T04:13:31;6.70;99.90
3996;DHT22;2012;49.794;9.722;2023-01-08T04:15:58;6.70;99.90
3996;DHT22;2012;49.794;9.722;2023-01-08T04:18:24;6.80;99.90
3996;DHT22;2012;49.794;9.722;2023-01-08T04:20:51;6.80;99.90
3996;DHT22;2012;49.794;9.722;2023-01-08T04:23:18;6.80;99.90
3996;DHT22;2012;49.794;9.722;2023-01-08T04:25:44;6.80;99.90
3996;DHT22;2012;49.794;9.722;2023-01-08T04:28:11;6.80;99.90
3996;DHT22;2012;49.794;9.722;2023-01-08T04:30:38;6.80;99.90
3996;DHT22;2012;49.794;9.722;2023-01-08T04:33:05;6.80;99.90
3996;DHT22;2012;49.794;9.722;2023-01-08T04:35:31;6.80;99.90
3996;DHT22;2012;49.794;9.722;2023-01-08T04:37:58;6.90;99.90
3996;DHT22;2012;49.794;9.722;2023-01-08T04:40:25;6.90;99.90
3996;DHT22;2012;49.794;9.722;2023-01-08T04:42:51;6.80;99.90
3996;DHT22;2012;49.794;9.722;2023-01-08T04:45:18;6.90;99.90
3996;DHT22;2012;49.794;9.722;2023-01-08T04:47:45;6.90;99.90
3996;DHT22;2012;49.794;9.722;2023-01-08T04:50:12;6.90;99.90
3996;DHT22;2012;49.794;9.722;2023-01-08T04:52:38;7.00;99.90
3996;DHT22;2012;49.794;9.722;2023-01-08T04:55:05;6.90;99.90
3996;DHT22;2012;49.794;9.722;2023-01-08T04:57:32;6.90;99.90
3996;DHT22;2012;49.794;9.722;2023-01-08T04:59:59;6.90;99.90
3996;DHT22;2012;49.794;9.722;2023-01-08T05:02:25;6.90;99.90
3996;DHT22;2012;49.794;9.722;2023-01-08T05:04:52;6.90;99.90
3996;DHT22;2012;49.794;9.722;2023-01-08T05:07:19;6.90;99.90
3996;DHT22;2012;49.794;9.722;2023-01-08T05:09:46;7.00;99.90
3996;DHT22;2012;49.794;9.722;2023-01-08T05:12:12;7.00;99.90
3996;DHT22;2012;49.794;9.722;2023-01-08T05:14:39;7.00;99.90
3996;DHT22;2012;49.794;9.722;2023-01-08T05:17:06;7.00;99.90
3996;DHT22;2012;49.794;9.722;2023-01-08T05:19:32;7.10;99.90
3996;DHT22;2012;49.794;9.722;2023-01-08T05:21:59;7.10;99.90
3996;DHT22;2012;49.794;9.722;2023-01-08T05:24:26;7.00;99.90
3996;DHT22;2012;49.794;9.722;2023-01-08T05:26:52;7.10;99.90
3996;DHT22;2012;49.794;9.722;2023-01-08T05:29:19;7.00;99.90
3996;DHT22;2012;49.794;9.722;2023-01-08T05:31:46;7.10;99.90
3996;DHT22;2012;49.794;9.722;2023-01-08T05:34:13;7.10;99.90
3996;DHT22;2012;49.794;9.722;2023-01-08T05:36:40;7.10;99.90
3996;DHT22;2012;49.794;9.722;2023-01-08T05:39:06;7.00;99.90
3996;DHT22;2012;49.794;9.722;2023-01-08T05:41:33;7.10;99.90
3996;DHT22;2012;49.794;9.722;2023-01-08T05:44:00;7.10;99.90
3996;DHT22;2012;49.794;9.722;2023-01-08T05:46:27;7.10;99.90
3996;DHT22;2012;49.794;9.722;2023-01-08T05:48:53;7.10;99.90
3996;DHT22;2012;49.794;9.722;2023-01-08T05:51:20;7.10;99.90
3996;DHT22;2012;49.794;9.722;2023-01-08T05:53:47;7.10;99.90
3996;DHT22;2012;49.794;9.722;2023-01-08T05:56:13;7.10;99.90
3996;DHT22;2012;49.794;9.722;2023-01-08T05:58:40;7.10;99.90
3996;DHT22;2012;49.794;9.722;2023-01-08T06:01:10;7.10;99.90
3996;DHT22;2012;49.794;9.722;2023-01-08T06:03:37;7.10;99.90
3996;DHT22;2012;49.794;9.722;2023-01-08T06:06:06;7.20;99.90
3996;DHT22;2012;49.794;9.722;2023-01-08T06:08:33;7.10;99.90
3996;DHT22;2012;49.794;9.722;2023-01-08T06:11:01;7.10;99.90
3996;DHT22;2012;49.794;9.722;2023-01-08T06:13:29;7.10;99.90
3996;DHT22;2012;49.794;9.722;2023-01-08T06:15:58;7.10;99.90
3996;DHT22;2012;49.794;9.722;2023-01-08T06:18:29;7.10;99.90
3996;DHT22;2012;49.794;9.722;2023-01-08T06:20:55;7.10;99.90
3996;DHT22;2012;49.794;9.722;2023-01-08T06:23:22;7.10;99.90
3996;DHT22;2012;49.794;9.722;2023-01-08T06:25:52;7.00;99.90
3996;DHT22;2012;49.794;9.722;2023-01-08T06:28:20;7.00;99.90
3996;DHT22;2012;49.794;9.722;2023-01-08T06:30:47;7.00;99.90
3996;DHT22;2012;49.794;9.722;2023-01-08T06:33:14;7.00;99.90
3996;DHT22;2012;49.794;9.722;2023-01-08T06:35:41;7.00;99.90
3996;DHT22;2012;49.794;9.722;2023-01-08T06:38:08;7.00;99.90
3996;DHT22;2012;49.794;9.722;2023-01-08T06:40:35;7.00;99.90
3996;DHT22;2012;49.794;9.722;2023-01-08T06:43:03;7.00;99.90
3996;DHT22;2012;49.794;9.722;2023-01-08T06:45:31;7.00;99.90
3996;DHT22;2012;49.794;9.722;2023-01-08T06:48:02;7.00;99.90
3996;DHT22;2012;49.794;9.722;2023-01-08T06:50:29;7.00;99.90
3996;DHT22;2012;49.794;9.722;2023-01-08T06:52:56;6.90;99.90
3996;DHT22;2012;49.794;9.722;2023-01-08T06:55:24;6.90;99.90
3996;DHT22;2012;49.794;9.722;2023-01-08T06:57:54;7.00;99.90
3996;DHT22;2012;49.794;9.722;2023-01-08T07:00:22;6.90;99.90
3996;DHT22;2012;49.794;9.722;2023-01-08T07:02:49;6.90;99.90
3996;DHT22;2012;49.794;9.722;2023-01-08T07:05:17;7.00;99.90
3996;DHT22;2012;49.794;9.722;2023-01-08T07:07:44;6.90;99.90
3996;DHT22;2012;49.794;9.722;2023-01-08T07:10:11;6.90;99.90
3996;DHT22;2012;49.794;9.722;2023-01-08T07:12:38;6.90;99.90
3996;DHT22;2012;49.794;9.722;2023-01-08T07:15:05;7.00;99.90
3996;DHT22;2012;49.794;9.722;2023-01-08T07:17:32;6.90;99.90
3996;DHT22;2012;49.794;9.722;2023-01-08T07:19:59;6.90;99.90
3996;DHT22;2012;49.794;9.722;2023-01-08T07:22:26;7.00;99.90
3996;DHT22;2012;49.794;9.722;2023-01-08T07:24:53;7.00;99.90
3996;DHT22;2012;49.794;9.722;2023-01-08T07:27:20;7.00;99.90
3996;DHT22;2012;49.794;9.722;2023-01-08T07:29:47;7.10;99.90
3996;DHT22;2012;49.794;9.722;2023-01-08T07:32:14;7.10;99.90
3996;DHT22;2012;49.794;9.722;2023-01-08T07:34:40;7.10;99.90
3996;DHT22;2012;49.794;9.722;2023-01-08T07:37:07;7.20;99.90
3996;DHT22;2012;49.794;9.722;2023-01-08T07:39:34;8.50;99.90
3996;DHT22;2012;49.794;9.722;2023-01-08T07:42:00;8.30;99.90
3996;DHT22;2012;49.794;9.722;2023-01-08T07:44:27;8.50;99.90
3996;DHT22;2012;49.794;9.722;2023-01-08T07:46:54;8.40;99.90
3996;DHT22;2012;49.794;9.722;2023-01-08T07:49:21;8.10;99.90
3996;DHT22;2012;49.794;9.722;2023-01-08T07:51:48;7.70;99.90
3996;DHT22;2012;49.794;9.722;2023-01-08T07:54:15;7.50;99.90
3996;DHT22;2012;49.794;9.722;2023-01-08T07:56:42;7.50;99.90
3996;DHT22;2012;49.794;9.722;2023-01-08T07:59:08;7.50;99.90
3996;DHT22;2012;49.794;9.722;2023-01-08T08:01:35;7.50;99.90
3996;DHT22;2012;49.794;9.722;2023-01-08T08:04:02;7.50;99.90
3996;DHT22;2012;49.794;9.722;2023-01-08T08:06:29;7.60;99.90
3996;DHT22;2012;49.794;9.722;2023-01-08T08:08:56;7.50;99.90
3996;DHT22;2012;49.794;9.722;2023-01-08T08:11:23;7.50;99.90
3996;DHT22;2012;49.794;9.722;2023-01-08T08:13:50;7.40;99.90
3996;DHT22;2012;49.794;9.722;2023-01-08T08:16:19;7.50;99.90
3996;DHT22;2012;49.794;9.722;2023-01-08T08:18:46;7.50;99.90
3996;DHT22;2012;49.794;9.722;2023-01-08T08:21:12;7.50;99.90
3996;DHT22;2012;49.794;9.722;2023-01-08T08:23:39;7.50;99.90
3996;DHT22;2012;49.794;9.722;2023-01-08T08:26:06;7.50;99.90
3996;DHT22;2012;49.794;9.722;2023-01-08T08:28:33;7.50;99.90
3996;DHT22;2012;49.794;9.722;2023-01-08T08:30:59;7.50;99.90
3996;DHT22;2012;49.794;9.722;2023-01-08T08:33:26;7.50;99.90
3996;DHT22;2012;49.794;9.722;2023-01-08T08:35:53;7.50;99.90
3996;DHT22;2012;49.794;9.722;2023-01-08T08:38:19;7.50;99.90
3996;DHT22;2012;49.794;9.722;2023-01-08T08:40:49;7.50;99.90
3996;DHT22;2012;49.794;9.722;2023-01-08T08:43:16;7.50;99.90
3996;DHT22;2012;49.794;9.722;2023-01-08T08:45:42;7.50;99.90
3996;DHT22;2012;49.794;9.722;2023-01-08T08:48:09;7.60;99.90
3996;DHT22;2012;49.794;9.722;2023-01-08T08:50:37;7.70;99.90
3996;DHT22;2012;49.794;9.722;2023-01-08T08:53:04;7.70;99.90
3996;DHT22;2012;49.794;9.722;2023-01-08T08:55:31;7.70;99.90
3996;DHT22;2012;49.794;9.722;2023-01-08T08:58:07;7.60;99.90
3996;DHT22;2012;49.794;9.722;2023-01-08T09:00:40;7.70;99.90
3996;DHT22;2012;49.794;9.722;2023-01-08T09:03:14;7.70;99.90
3996;DHT22;2012;49.794;9.722;2023-01-08T09:05:41;7.60;99.90
3996;DHT22;2012;49.794;9.722;2023-01-08T09:08:08;7.70;99.90
3996;DHT22;2012;49.794;9.722;2023-01-08T09:10:39;7.70;99.90
3996;DHT22;2012;49.794;9.722;2023-01-08T09:13:08;7.60;99.90
3996;DHT22;2012;49.794;9.722;2023-01-08T09:15:35;7.60;99.90
3996;DHT22;2012;49.794;9.722;2023-01-08T09:18:03;7.70;99.90
3996;DHT22;2012;49.794;9.722;2023-01-08T09:20:29;7.70;99.90
3996;DHT22;2012;49.794;9.722;2023-01-08T09:22:59;7.70;99.90
3996;DHT22;2012;49.794;9.722;2023-01-08T09:25:27;7.70;99.90
3996;DHT22;2012;49.794;9.722;2023-01-08T09:28:10;7.70;99.90
3996;DHT22;2012;49.794;9.722;2023-01-08T09:30:40;7.70;99.90
3996;DHT22;2012;49.794;9.722;2023-01-08T09:33:08;7.70;99.90
3996;DHT22;2012;49.794;9.722;2023-01-08T09:35:35;7.70;99.90
3996;DHT22;2012;49.794;9.722;2023-01-08T09:38:02;7.70;99.90
3996;DHT22;2012;49.794;9.722;2023-01-08T09:40:38;7.70;99.90
3996;DHT22;2012;49.794;9.722;2023-01-08T09:43:08;7.70;99.90
3996;DHT22;2012;49.794;9.722;2023-01-08T09:45:38;7.70;99.90
3996;DHT22;2012;49.794;9.722;2023-01-08T09:48:13;7.70;99.90
3996;DHT22;2012;49.794;9.722;2023-01-08T09:50:41;7.70;99.90
3996;DHT22;2012;49.794;9.722;2023-01-08T09:53:13;7.70;99.90
3996;DHT22;2012;49.794;9.722;2023-01-08T09:55:41;7.80;99.90
3996;DHT22;2012;49.794;9.722;2023-01-08T09:58:20;7.80;99.90
3996;DHT22;2012;49.794;9.722;2023-01-08T10:00:49;7.80;99.90
3996;DHT22;2012;49.794;9.722;2023-01-08T10:03:16;7.80;99.90
3996;DHT22;2012;49.794;9.722;2023-01-08T10:05:42;7.80;99.90
3996;DHT22;2012;49.794;9.722;2023-01-08T10:08:13;7.80;99.90
3996;DHT22;2012;49.794;9.722;2023-01-08T10:10:40;7.90;99.90
3996;DHT22;2012;49.794;9.722;2023-01-08T10:13:09;7.90;99.90
3996;DHT22;2012;49.794;9.722;2023-01-08T10:15:37;7.90;99.90
3996;DHT22;2012;49.794;9.722;2023-01-08T10:18:08;7.90;99.90
3996;DHT22;2012;49.794;9.722;2023-01-08T10:20:36;7.90;99.90
3996;DHT22;2012;49.794;9.722;2023-01-08T10:23:13;7.90;99.90
3996;DHT22;2012;49.794;9.722;2023-01-08T10:25:55;8.00;99.90
3996;DHT22;2012;49.794;9.722;2023-01-08T10:28:24;8.00;99.90
3996;DHT22;2012;49.794;9.722;2023-01-08T10:30:52;8.00;99.90
3996;DHT22;2012;49.794;9.722;2023-01-08T10:33:28;8.00;99.90
3996;DHT22;2012;49.794;9.722;2023-01-08T10:36:01;8.00;99.90
3996;DHT22;2012;49.794;9.722;2023-01-08T10:38:35;8.00;99.90
3996;DHT22;2012;49.794;9.722;2023-01-08T10:41:09;8.00;99.90
3996;DHT22;2012;49.794;9.722;2023-01-08T10:46:40;8.10;99.90
3996;DHT22;2012;49.794;9.722;2023-01-08T10:49:29;8.10;99.90
3996;DHT22;2012;49.794;9.722;2023-01-08T10:51:57;8.10;99.90
3996;DHT22;2012;49.794;9.722;2023-01-08T10:54:36;8.10;99.90
3996;DHT22;2012;49.794;9.722;2023-01-08T10:57:39;8.20;99.90
3996;DHT22;2012;49.794;9.722;2023-01-08T11:00:22;8.20;99.90
3996;DHT22;2012;49.794;9.722;2023-01-08T11:02:49;8.20;99.90
3996;DHT22;2012;49.794;9.722;2023-01-08T11:05:16;8.20;99.90
3996;DHT22;2012;49.794;9.722;2023-01-08T11:07:55;8.30;99.90
3996;DHT22;2012;49.794;9.722;2023-01-08T11:10:24;8.20;99.90
3996;DHT22;2012;49.794;9.722;2023-01-08T11:12:59;8.30;99.90
3996;DHT22;2012;49.794;9.722;2023-01-08T11:15:37;8.30;99.90
3996;DHT22;2012;49.794;9.722;2023-01-08T11:18:22;8.20;99.90
3996;DHT22;2012;49.794;9.722;2023-01-08T11:20:50;8.30;99.90
3996;DHT22;2012;49.794;9.722;2023-01-08T11:23:18;8.30;99.90
3996;DHT22;2012;49.794;9.722;2023-01-08T11:25:55;8.30;99.90
3996;DHT22;2012;49.794;9.722;2023-01-08T11:28:30;8.30;99.90
3996;DHT22;2012;49.794;9.722;2023-01-08T11:33:57;8.30;99.90
3996;DHT22;2012;49.794;9.722;2023-01-08T11:36:46;8.30;99.90
3996;DHT22;2012;49.794;9.722;2023-01-08T11:39:15;8.20;99.90
3996;DHT22;2012;49.794;9.722;2023-01-08T11:44:41;8.30;99.90
3996;DHT22;2012;49.794;9.722;2023-01-08T11:47:18;8.30;99.90
3996;DHT22;2012;49.794;9.722;2023-01-08T12:01:02;9.20;99.90
3996;DHT22;2012;49.794;9.722;2023-01-08T12:03:48;9.50;99.90
3996;DHT22;2012;49.794;9.722;2023-01-08T12:06:27;9.90;99.90
3996;DHT22;2012;49.794;9.722;2023-01-08T12:09:39;9.90;99.90
3996;DHT22;2012;49.794;9.722;2023-01-08T12:12:28;9.60;99.90
3996;DHT22;2012;49.794;9.722;2023-01-08T12:28:58;9.30;99.90
3996;DHT22;2012;49.794;9.722;2023-01-08T12:31:58;9.20;99.90
3996;DHT22;2012;49.794;9.722;2023-01-08T12:34:56;9.20;99.90
3996;DHT22;2012;49.794;9.722;2023-01-08T12:37:30;9.20;99.90
3996;DHT22;2012;49.794;9.722;2023-01-08T12:40:11;9.20;99.90
3996;DHT22;2012;49.794;9.722;2023-01-08T12:42:42;9.20;99.90
3996;DHT22;2012;49.794;9.722;2023-01-08T12:45:26;9.20;99.90
3996;DHT22;2012;49.794;9.722;2023-01-08T12:48:07;9.20;99.90
3996;DHT22;2012;49.794;9.722;2023-01-08T12:50:58;9.30;99.90
3996;DHT22;2012;49.794;9.722;2023-01-08T13:03:59;9.30;99.90
3996;DHT22;2012;49.794;9.722;2023-01-08T13:06:26;9.30;99.90
3996;DHT22;2012;49.794;9.722;2023-01-08T13:08:54;9.40;99.90
3996;DHT22;2012;49.794;9.722;2023-01-08T13:11:27;9.40;99.90
3996;DHT22;2012;49.794;9.722;2023-01-08T13:14:07;9.50;99.90
3996;DHT22;2012;49.794;9.722;2023-01-08T13:16:37;9.50;99.90
3996;DHT22;2012;49.794;9.722;2023-01-08T13:19:18;9.60;99.90
3996;DHT22;2012;49.794;9.722;2023-01-08T13:21:52;9.60;99.90
3996;DHT22;2012;49.794;9.722;2023-01-08T13:24:36;9.60;99.90
3996;DHT22;2012;49.794;9.722;2023-01-08T13:29:48;9.60;99.90
3996;DHT22;2012;49.794;9.722;2023-01-08T13:32:48;9.50;99.90
3996;DHT22;2012;49.794;9.722;2023-01-08T13:37:43;9.50;99.90
3996;DHT22;2012;49.794;9.722;2023-01-08T13:43:03;9.50;99.90
3996;DHT22;2012;49.794;9.722;2023-01-08T13:45:31;9.50;99.90
3996;DHT22;2012;49.794;9.722;2023-01-08T13:47:59;9.50;99.90
3996;DHT22;2012;49.794;9.722;2023-01-08T13:50:26;9.40;99.90
3996;DHT22;2012;49.794;9.722;2023-01-08T13:52:59;9.40;99.90
3996;DHT22;2012;49.794;9.722;2023-01-08T13:55:29;9.50;99.90
3996;DHT22;2012;49.794;9.722;2023-01-08T13:57:58;9.60;99.90
3996;DHT22;2012;49.794;9.722;2023-01-08T14:03:44;9.60;99.90
3996;DHT22;2012;49.794;9.722;2023-01-08T14:06:22;9.60;99.90
3996;DHT22;2012;49.794;9.722;2023-01-08T14:13:55;9.50;99.90
3996;DHT22;2012;49.794;9.722;2023-01-08T14:16:23;9.50;99.90
3996;DHT22;2012;49.794;9.722;2023-01-08T14:18:50;9.40;99.90
3996;DHT22;2012;49.794;9.722;2023-01-08T14:21:21;9.40;99.90
3996;DHT22;2012;49.794;9.722;2023-01-08T14:23:49;9.40;99.90
3996;DHT22;2012;49.794;9.722;2023-01-08T14:26:30;9.40;99.90
3996;DHT22;2012;49.794;9.722;2023-01-08T14:28:58;9.40;99.90
3996;DHT22;2012;49.794;9.722;2023-01-08T14:31:26;9.40;99.90
3996;DHT22;2012;49.794;9.722;2023-01-08T14:33:55;9.40;99.90
3996;DHT22;2012;49.794;9.722;2023-01-08T14:36:22;9.40;99.90
3996;DHT22;2012;49.794;9.722;2023-01-08T14:38:49;9.50;99.90
3996;DHT22;2012;49.794;9.722;2023-01-08T14:41:33;9.50;99.90
3996;DHT22;2012;49.794;9.722;2023-01-08T14:44:20;9.50;99.90
3996;DHT22;2012;49.794;9.722;2023-01-08T14:47:02;9.40;99.90
3996;DHT22;2012;49.794;9.722;2023-01-08T14:49:31;9.40;99.90
3996;DHT22;2012;49.794;9.722;2023-01-08T14:52:00;9.40;99.90
3996;DHT22;2012;49.794;9.722;2023-01-08T14:54:33;9.30;99.90
3996;DHT22;2012;49.794;9.722;2023-01-08T14:57:00;9.40;99.90
3996;DHT22;2012;49.794;9.722;2023-01-08T14:59:31;9.40;99.90
3996;DHT22;2012;49.794;9.722;2023-01-08T15:02:01;9.40;99.90
3996;DHT22;2012;49.794;9.722;2023-01-08T15:04:29;9.30;99.90
3996;DHT22;2012;49.794;9.722;2023-01-08T15:07:19;9.30;99.90
3996;DHT22;2012;49.794;9.722;2023-01-08T15:09:58;9.20;99.90
3996;DHT22;2012;49.794;9.722;2023-01-08T15:12:28;9.20;99.90
3996;DHT22;2012;49.794;9.722;2023-01-08T15:15:07;9.30;99.90
3996;DHT22;2012;49.794;9.722;2023-01-08T15:17:33;9.30;99.90
3996;DHT22;2012;49.794;9.722;2023-01-08T15:20:00;9.30;99.90
3996;DHT22;2012;49.794;9.722;2023-01-08T15:22:29;9.20;99.90
3996;DHT22;2012;49.794;9.722;2023-01-08T15:25:00;9.30;99.90
3996;DHT22;2012;49.794;9.722;2023-01-08T15:27:28;9.30;99.90
3996;DHT22;2012;49.794;9.722;2023-01-08T15:30:03;9.30;99.90
3996;DHT22;2012;49.794;9.722;2023-01-08T15:32:32;9.30;99.90
3996;DHT22;2012;49.794;9.722;2023-01-08T15:35:13;9.20;99.90
3996;DHT22;2012;49.794;9.722;2023-01-08T15:37:40;9.20;99.90
3996;DHT22;2012;49.794;9.722;2023-01-08T15:40:08;9.30;99.90
3996;DHT22;2012;49.794;9.722;2023-01-08T15:42:36;9.30;99.90
3996;DHT22;2012;49.794;9.722;2023-01-08T15:45:26;9.20;99.90
3996;DHT22;2012;49.794;9.722;2023-01-08T15:47:54;9.20;99.90
3996;DHT22;2012;49.794;9.722;2023-01-08T15:50:20;9.20;99.90
3996;DHT22;2012;49.794;9.722;2023-01-08T15:52:47;9.20;99.90
3996;DHT22;2012;49.794;9.722;2023-01-08T15:55:22;9.10;99.90
3996;DHT22;2012;49.794;9.722;2023-01-08T15:57:50;9.20;99.90
3996;DHT22;2012;49.794;9.722;2023-01-08T16:00:18;9.10;99.90
3996;DHT22;2012;49.794;9.722;2023-01-08T16:02:50;9.10;99.90
3996;DHT22;2012;49.794;9.722;2023-01-08T16:05:20;9.10;99.90
3996;DHT22;2012;49.794;9.722;2023-01-08T16:07:47;9.20;99.90
3996;DHT22;2012;49.794;9.722;2023-01-08T16:10:15;9.20;99.90
3996;DHT22;2012;49.794;9.722;2023-01-08T16:12:42;9.10;99.90
3996;DHT22;2012;49.794;9.722;2023-01-08T16:15:10;9.10;99.90
3996;DHT22;2012;49.794;9.722;2023-01-08T16:17:37;9.10;99.90
3996;DHT22;2012;49.794;9.722;2023-01-08T16:20:04;9.10;99.90
3996;DHT22;2012;49.794;9.722;2023-01-08T16:22:31;9.10;99.90
3996;DHT22;2012;49.794;9.722;2023-01-08T16:24:58;9.10;99.90
3996;DHT22;2012;49.794;9.722;2023-01-08T16:27:25;9.10;99.90
3996;DHT22;2012;49.794;9.722;2023-01-08T16:29:52;9.00;99.90
3996;DHT22;2012;49.794;9.722;2023-01-08T16:32:18;9.10;99.90
3996;DHT22;2012;49.794;9.722;2023-01-08T16:34:45;9.10;99.90
3996;DHT22;2012;49.794;9.722;2023-01-08T16:37:12;9.10;99.90
3996;DHT22;2012;49.794;9.722;2023-01-08T16:39:39;9.00;99.90
3996;DHT22;2012;49.794;9.722;2023-01-08T16:42:05;9.00;99.90
3996;DHT22;2012;49.794;9.722;2023-01-08T16:44:34;9.00;99.90
3996;DHT22;2012;49.794;9.722;2023-01-08T16:47:01;8.90;99.90
3996;DHT22;2012;49.794;9.722;2023-01-08T16:49:28;9.00;99.90
3996;DHT22;2012;49.794;9.722;2023-01-08T16:51:55;9.00;99.90
3996;DHT22;2012;49.794;9.722;2023-01-08T16:54:21;9.00;99.90
3996;DHT22;2012;49.794;9.722;2023-01-08T16:56:48;9.00;99.90
3996;DHT22;2012;49.794;9.722;2023-01-08T16:59:15;9.00;99.90
3996;DHT22;2012;49.794;9.722;2023-01-08T17:01:52;8.90;99.90
3996;DHT22;2012;49.794;9.722;2023-01-08T17:04:19;8.90;99.90
3996;DHT22;2012;49.794;9.722;2023-01-08T17:06:46;8.90;99.90
3996;DHT22;2012;49.794;9.722;2023-01-08T17:09:13;8.90;99.90
3996;DHT22;2012;49.794;9.722;2023-01-08T17:11:40;9.00;99.90
3996;DHT22;2012;49.794;9.722;2023-01-08T17:14:08;8.90;99.90
3996;DHT22;2012;49.794;9.722;2023-01-08T17:16:35;9.00;99.90
3996;DHT22;2012;49.794;9.722;2023-01-08T17:19:02;9.00;99.90
3996;DHT22;2012;49.794;9.722;2023-01-08T17:21:29;9.00;99.90
3996;DHT22;2012;49.794;9.722;2023-01-08T17:23:56;8.90;99.90
3996;DHT22;2012;49.794;9.722;2023-01-08T17:26:22;9.00;99.90
3996;DHT22;2012;49.794;9.722;2023-01-08T17:28:49;9.00;99.90
3996;DHT22;2012;49.794;9.722;2023-01-08T17:31:17;8.90;99.90
3996;DHT22;2012;49.794;9.722;2023-01-08T17:33:45;9.00;99.90
3996;DHT22;2012;49.794;9.722;2023-01-08T17:36:24;8.90;99.90
3996;DHT22;2012;49.794;9.722;2023-01-08T17:38:51;8.90;99.90
3996;DHT22;2012;49.794;9.722;2023-01-08T17:41:20;8.90;99.90
3996;DHT22;2012;49.794;9.722;2023-01-08T17:44:07;8.90;99.90
3996;DHT22;2012;49.794;9.722;2023-01-08T17:46:38;8.90;99.90
3996;DHT22;2012;49.794;9.722;2023-01-08T17:49:08;8.90;99.90
3996;DHT22;2012;49.794;9.722;2023-01-08T17:51:37;8.90;99.90
3996;DHT22;2012;49.794;9.722;2023-01-08T17:54:04;8.80;99.90
3996;DHT22;2012;49.794;9.722;2023-01-08T17:56:30;8.80;99.90